• Join FlightAware (Why Join?)
  • Login
  • US Flag 
02:18AM EST


 

Airport Tracker/Info


-or-


 

Live Flight TrackerFlight Track Log ✈ N79007 ✈ 26-Jul-2014 ✈ KDTN - KRSN

Flight Track Log - Related Links

Times and Time Zones

All times are in EDT time to prevent confusion due to time zone crossing. See the N79007 flight status page for this flight to view local times or setup timezone preferences in your user account.

Time Position Orientation Groundspeed Altitude Reporting Facility
EDT Latitude Longitude Course Direction KTS MPH feet Rate Location/Type
07:56PM 32.5261 -93.7319 131° Southeast 115 132 600  Level Fort Worth Center
07:57PM 32.5192 -93.7225 131° Southeast 116 133 900 847 Climbing Fort Worth Center
07:58PM 32.5150 -93.6858 98° East 141 162 1,800 843 Climbing Fort Worth Center
07:59PM 32.5267 -93.6381 74° East 151 174 2,600 744 Climbing Fort Worth Center
08:00PM 32.5344 -93.5906 79° East 145 167 3,300 614 Climbing Fort Worth Center
08:01PM 32.5356 -93.5400 88° East 143 165 3,900 545 Climbing Fort Worth Center
08:02PM 32.5350 -93.4964 91° East 148 170 4,400 545 Climbing Fort Worth Center
08:03PM 32.5344 -93.4522 91° East 147 169 4,900 529 Climbing Fort Worth Center
08:03PM 32.5336 -93.4397 95° East 145 167 5,000 393 Climbing Fort Worth Center
08:04PM 32.5336 -93.4028 90° East 150 173 5,300 387 Climbing Fort Worth Center
08:04PM 32.5328 -93.3906 95° East 147 169 5,400 200 Climbing Fort Worth Center
08:05PM 32.5325 -93.3508 90° East 159 183 5,500  Climbing Fort Worth Center
08:05PM 32.5317 -93.3372 94° East 162 186 5,400 -98 Descending Fort Worth Center
08:06PM 32.5308 -93.2919 91° East 176 203 5,400  Level Fort Worth Center
08:06PM 32.5303 -93.2761 92° East 169 194 5,400  Level Fort Worth Center
08:07PM 32.5294 -93.2350 91° East 175 201 5,400  Level Fort Worth Center
08:07PM 32.5292 -93.2192 91° East 172 198 5,400  Level Fort Worth Center
08:08PM 32.5278 -93.1758 92° East 173 199 5,400  Level Fort Worth Center
08:08PM 32.5278 -93.1578 90° East 173 199 5,400  Level Fort Worth Center
08:10PM 32.5224 -93.0977 96° East  Level FlightAware Approximate
08:17PM 32.5151 -92.8307 96° East  Level FlightAware Approximate
08:18PM 32.5119 -92.7927 96° East  Level FlightAware Approximate
08:19PM 32.5088 -92.7547 96° East  Level FlightAware Approximate
08:20PM 32.5056 -92.7168 96° East  Level FlightAware Approximate
08:21PM 32.5024 -92.6788 96° East  Level FlightAware Approximate
08:22PM 32.5000 -92.6408 90° East  Level FlightAware Approximate
08:23PM 32.5000 -92.6026 90° East  Level FlightAware Approximate
08:24PM 32.5000 -92.5833 90° East  Level FlightAware Approximate
08:25PM 32.5146 -92.5884 270° West  Level Estimated
08:26PM 32.5146 -92.5884 90° East  Level Estimated
08:27PM 32.5146 -92.5884 164° South  Level Estimated
08:28PM 32.5146 -92.5884 90° East  Level Estimated
08:29PM 32.5146 -92.5884 164° South  Level Estimated
08:30PM 32.5146 -92.5884 90° East  Level Estimated
08:31PM 32.5146 -92.5884 164° South  Level Estimated
08:32PM 32.5146 -92.5884 90° East  Level Estimated
08:33PM 32.5146 -92.5884 164° South  Level Estimated
08:34PM 32.5146 -92.5884 90° East  Level Estimated
08:35PM 32.5146 -92.5884 164° South  Level Estimated
08:36PM 32.5146 -92.5884 90° East  Level Estimated
08:37PM 32.5146 -92.5884 164° South  Level Estimated
08:38PM 32.5146 -92.5884 90° East  Level Estimated
08:39PM 32.5146 -92.5884 164° South  Level Estimated
08:40PM 32.5146 -92.5884 90° East  Level Estimated
08:41PM 32.5146 -92.5884 164° South  Level Estimated
08:42PM 32.5146 -92.5884 90° East  Level Estimated